Terminal Aerodrome Forecast
Issued by NWS

Home | Current Version | Previous Version | Text Only | Print | Product List | Glossary Off
Versions: 1 2 3 4 5 6 7 8 9 10 11 12 13 14 15 16

055
FTUS43 KMPX 221139
TAFAXN
TAF
KAXN 221139Z 2212/2312 14008KT P6SM SKC
     FM221300 17011KT P6SM SKC
     FM221700 18019G27KT P6SM SCT150
     FM230200 17017KT P6SM BKN090
     FM231000 17014KT P6SM VCTS OVC035CB=

USA.gov is the U.S. government's official web portal to all federal, state and local government web resources and services.